createdAt,value
2019-02-26T00:00:10.021Z,23.43
2019-02-26T00:02:40.666Z,23.40
2019-02-26T00:05:08.939Z,23.40
2019-02-26T00:07:38.440Z,23.37
2019-02-26T00:10:09.616Z,23.38
2019-02-26T00:12:37.973Z,23.37
2019-02-26T00:17:19.668Z,23.36
2019-02-26T00:19:47.782Z,23.30
2019-02-26T00:22:15.965Z,23.31
2019-02-26T00:24:46.486Z,23.31
2019-02-26T00:27:14.065Z,23.28
2019-02-26T00:29:41.421Z,23.25
2019-02-26T00:32:10.078Z,23.23
2019-02-26T00:34:41.086Z,23.20
2019-02-26T00:37:09.032Z,23.17
2019-02-26T00:39:37.932Z,23.17
2019-02-26T00:42:05.835Z,23.14
2019-02-26T00:44:35.295Z,23.14
2019-02-26T00:47:04.815Z,23.12
2019-02-26T00:49:33.057Z,23.09
2019-02-26T00:52:01.039Z,23.09
2019-02-26T00:54:29.298Z,23.07
2019-02-26T00:57:01.069Z,23.05
2019-02-26T00:59:28.511Z,23.05
2019-02-26T01:01:57.001Z,23.05
2019-02-26T01:04:26.301Z,23.03
2019-02-26T01:06:53.765Z,23.05
2019-02-26T01:09:23.126Z,23.02
2019-02-26T01:11:53.786Z,23.02
2019-02-26T01:14:23.049Z,22.98
2019-02-26T01:16:51.438Z,22.91
2019-02-26T01:19:19.903Z,22.89
2019-02-26T01:21:48.165Z,22.84
2019-02-26T01:24:15.786Z,22.85
2019-02-26T01:26:43.645Z,22.81
2019-02-26T01:29:16.073Z,22.81
2019-02-26T01:31:40.713Z,22.70
2019-02-26T01:34:11.028Z,22.78
2019-02-26T01:36:40.243Z,22.79
2019-02-26T01:39:09.666Z,22.75
2019-02-26T01:41:37.191Z,22.76
2019-02-26T01:44:04.596Z,22.76
2019-02-26T01:46:34.495Z,22.77
2019-02-26T01:49:04.223Z,22.76
2019-02-26T01:51:31.562Z,22.76
2019-02-26T01:53:58.969Z,22.74
2019-02-26T01:56:26.639Z,22.72
2019-02-26T01:58:56.896Z,22.70
2019-02-26T02:01:23.939Z,22.68
2019-02-26T02:03:53.825Z,22.67
2019-02-26T02:06:22.062Z,22.67
2019-02-26T02:08:50.651Z,22.67
2019-02-26T02:11:23.440Z,22.63
2019-02-26T02:13:48.666Z,22.62
2019-02-26T02:16:16.603Z,22.64
2019-02-26T02:18:48.123Z,22.62
2019-02-26T02:21:13.051Z,22.62
2019-02-26T02:23:42.009Z,22.59
2019-02-26T02:26:11.076Z,22.59
2019-02-26T02:28:38.292Z,22.62
2019-02-26T02:31:05.774Z,22.62
2019-02-26T02:33:34.945Z,22.59
2019-02-26T02:36:02.394Z,22.54
2019-02-26T02:38:30.076Z,22.54
2019-02-26T02:40:57.211Z,22.52
2019-02-26T02:43:24.524Z,22.52
2019-02-26T02:45:53.180Z,22.52
2019-02-26T02:48:21.095Z,22.53
2019-02-26T02:50:49.078Z,22.52
2019-02-26T02:53:20.448Z,22.48
2019-02-26T02:55:48.873Z,22.48
2019-02-26T02:58:18.213Z,22.50
2019-02-26T03:00:48.337Z,22.49
2019-02-26T03:03:16.742Z,22.49
2019-02-26T03:05:45.885Z,22.47
2019-02-26T03:08:15.772Z,22.47
2019-02-26T03:10:45.068Z,22.46
2019-02-26T03:13:14.428Z,22.43
2019-02-26T03:15:43.523Z,22.45
2019-02-26T03:18:12.578Z,22.42
2019-02-26T03:20:40.676Z,22.41
2019-02-26T03:23:09.870Z,22.39
2019-02-26T03:25:38.295Z,22.46
2019-02-26T03:28:06.524Z,22.45
2019-02-26T03:30:40.161Z,22.38
2019-02-26T03:33:05.025Z,22.34
2019-02-26T03:35:32.138Z,22.35
2019-02-26T03:38:01.399Z,22.38
2019-02-26T03:40:32.900Z,22.39
2019-02-26T03:43:01.338Z,22.38
2019-02-26T03:45:29.173Z,22.39
2019-02-26T03:47:58.034Z,22.43
2019-02-26T03:50:27.236Z,22.39
2019-02-26T03:52:55.031Z,22.41
2019-02-26T03:55:22.213Z,22.33
2019-02-26T03:57:53.360Z,22.32
2019-02-26T04:00:20.222Z,22.32
2019-02-26T04:02:51.229Z,22.32
2019-02-26T04:05:18.034Z,22.31
2019-02-26T04:07:45.360Z,22.28
2019-02-26T04:10:13.148Z,22.27
2019-02-26T04:12:42.376Z,22.29
2019-02-26T04:15:11.950Z,22.33
2019-02-26T04:17:40.161Z,22.29
2019-02-26T04:20:09.346Z,22.30
2019-02-26T04:22:40.172Z,22.29
2019-02-26T04:25:43.888Z,22.29
2019-02-26T04:28:30.682Z,22.30
2019-02-26T04:31:54.537Z,22.27
2019-02-26T04:35:02.906Z,22.25
2019-02-26T04:38:18.160Z,22.23
2019-02-26T04:41:27.455Z,22.20
2019-02-26T04:44:58.887Z,22.20
2019-02-26T04:47:33.777Z,22.19
2019-02-26T04:50:02.827Z,22.18
2019-02-26T04:52:32.427Z,22.19
2019-02-26T04:54:58.967Z,22.22
2019-02-26T04:57:26.328Z,22.19
2019-02-26T04:59:55.491Z,22.18
2019-02-26T05:02:23.175Z,22.24
2019-02-26T05:04:50.247Z,22.18
2019-02-26T05:07:19.424Z,22.16
2019-02-26T05:09:47.509Z,22.21
2019-02-26T05:12:16.595Z,22.19
2019-02-26T05:14:44.341Z,22.16
2019-02-26T05:17:12.636Z,22.17
2019-02-26T05:19:42.570Z,22.16
2019-02-26T05:22:11.228Z,22.16
2019-02-26T05:24:44.351Z,22.16
2019-02-26T05:27:15.539Z,22.16
2019-02-26T05:29:46.786Z,22.17
2019-02-26T05:32:13.074Z,22.16
2019-02-26T05:34:42.792Z,22.18
2019-02-26T05:37:10.995Z,22.17
2019-02-26T05:39:40.654Z,22.18
2019-02-26T05:42:07.647Z,22.15
2019-02-26T05:44:34.726Z,22.16
2019-02-26T05:47:02.311Z,22.14
2019-02-26T05:49:31.697Z,22.15
2019-02-26T05:52:01.050Z,22.20
2019-02-26T05:54:27.644Z,22.20
2019-02-26T05:56:54.721Z,22.20
2019-02-26T05:59:22.365Z,22.22
2019-02-26T06:01:52.736Z,22.17
2019-02-26T06:04:20.604Z,22.18
2019-02-26T06:06:50.439Z,22.18
2019-02-26T06:09:20.069Z,22.18
2019-02-26T06:11:49.997Z,22.18
2019-02-26T06:14:16.077Z,22.22
2019-02-26T06:16:45.543Z,22.21
2019-02-26T06:19:13.553Z,22.21
2019-02-26T06:21:44.737Z,22.19
2019-02-26T06:24:11.867Z,22.21
2019-02-26T06:26:41.191Z,22.17
2019-02-26T06:29:07.940Z,22.16
2019-02-26T06:31:37.654Z,22.20
2019-02-26T06:34:08.110Z,22.13
2019-02-26T06:36:33.672Z,22.17
2019-02-26T06:39:03.765Z,22.18
2019-02-26T06:41:31.260Z,22.14
2019-02-26T06:43:59.431Z,22.12
2019-02-26T06:46:28.814Z,22.14
2019-02-26T06:48:55.736Z,22.15
2019-02-26T06:51:24.304Z,22.16
2019-02-26T06:53:54.095Z,22.20
2019-02-26T06:56:20.923Z,22.21
2019-02-26T06:58:47.982Z,22.23
2019-02-26T07:01:16.603Z,22.24
2019-02-26T07:03:43.970Z,22.24
2019-02-26T07:06:11.020Z,22.25
2019-02-26T07:08:38.823Z,22.25
2019-02-26T07:11:07.298Z,22.24
2019-02-26T07:13:36.723Z,22.27
2019-02-26T07:16:05.303Z,22.24
2019-02-26T07:18:32.712Z,22.27
2019-02-26T07:21:00.445Z,22.29
2019-02-26T07:23:29.918Z,22.30
2019-02-26T07:25:57.263Z,22.30
2019-02-26T07:28:26.901Z,22.31
2019-02-26T07:30:54.711Z,22.33
2019-02-26T07:33:22.483Z,22.35
2019-02-26T07:35:52.221Z,22.40
2019-02-26T07:38:22.947Z,22.41
2019-02-26T07:40:50.999Z,22.46
2019-02-26T07:43:20.068Z,22.54
2019-02-26T07:45:48.726Z,22.57
2019-02-26T07:48:18.663Z,22.65
2019-02-26T07:50:48.255Z,22.72
2019-02-26T07:53:17.972Z,22.74
2019-02-26T07:55:45.671Z,22.74
2019-02-26T07:58:15.465Z,22.82
2019-02-26T08:00:47.138Z,22.84
2019-02-26T08:03:12.960Z,22.90
2019-02-26T08:05:40.501Z,22.96
2019-02-26T08:08:09.661Z,22.98
2019-02-26T08:10:39.552Z,22.99
2019-02-26T08:13:08.676Z,23.03
2019-02-26T08:15:37.522Z,23.05
2019-02-26T08:18:05.892Z,23.03
2019-02-26T08:20:35.169Z,23.08
2019-02-26T08:23:02.421Z,23.11
2019-02-26T08:25:30.400Z,23.16
2019-02-26T08:27:59.328Z,23.28
2019-02-26T08:30:26.487Z,23.28
2019-02-26T08:32:56.087Z,23.36
2019-02-26T08:35:23.473Z,23.36
2019-02-26T08:37:50.546Z,23.43
2019-02-26T08:40:17.772Z,23.44
2019-02-26T08:42:44.856Z,23.51
2019-02-26T08:45:17.221Z,23.55
2019-02-26T08:47:44.875Z,23.62
2019-02-26T08:50:14.310Z,23.60
2019-02-26T08:52:41.670Z,23.68
2019-02-26T08:55:11.168Z,23.73
2019-02-26T08:57:39.692Z,23.77
2019-02-26T09:00:13.955Z,23.78
2019-02-26T09:02:43.568Z,23.80
2019-02-26T09:05:11.909Z,23.86
2019-02-26T09:07:40.475Z,23.85
2019-02-26T09:10:10.686Z,23.87
2019-02-26T09:12:40.868Z,23.91
2019-02-26T09:15:11.596Z,23.96
2019-02-26T09:17:40.449Z,23.98
2019-02-26T09:20:14.184Z,23.99
2019-02-26T09:22:45.684Z,24.01
2019-02-26T09:25:12.397Z,24.02
2019-02-26T09:27:42.922Z,24.05
2019-02-26T09:30:14.043Z,24.06
2019-02-26T09:32:44.585Z,24.11
2019-02-26T09:35:12.313Z,24.14
2019-02-26T09:37:40.459Z,24.16
2019-02-26T09:40:10.714Z,24.16
2019-02-26T09:42:39.099Z,24.19
2019-02-26T09:45:09.550Z,24.20
2019-02-26T09:47:37.203Z,24.22
2019-02-26T09:50:05.511Z,24.26
2019-02-26T09:52:33.325Z,24.29
2019-02-26T09:55:00.420Z,24.34
2019-02-26T09:57:28.314Z,24.31
2019-02-26T09:59:58.172Z,24.35
2019-02-26T10:02:26.500Z,24.34
2019-02-26T10:04:54.480Z,24.37
2019-02-26T10:07:22.220Z,24.38
2019-02-26T10:09:49.296Z,24.40
2019-02-26T10:12:17.713Z,24.41
2019-02-26T10:14:45.120Z,24.44
2019-02-26T10:17:14.101Z,24.46
2019-02-26T10:19:42.991Z,24.49
2019-02-26T10:22:13.489Z,24.49
2019-02-26T10:24:40.608Z,24.50
2019-02-26T10:27:10.872Z,24.46
2019-02-26T10:29:39.815Z,24.44
2019-02-26T10:32:06.777Z,24.45
2019-02-26T10:34:33.865Z,24.48
2019-02-26T10:37:02.086Z,24.51
2019-02-26T10:39:29.367Z,24.49
2019-02-26T10:41:57.275Z,24.49
2019-02-26T10:44:25.022Z,24.48
2019-02-26T10:46:54.084Z,24.50
2019-02-26T10:49:23.377Z,24.58
2019-02-26T10:51:52.230Z,24.61
2019-02-26T10:54:21.385Z,24.60
2019-02-26T10:56:49.587Z,24.60
2019-02-26T10:59:19.620Z,24.58
2019-02-26T11:01:49.583Z,24.60
2019-02-26T11:04:17.143Z,24.54
2019-02-26T11:06:46.869Z,24.52
2019-02-26T11:09:18.214Z,24.53
2019-02-26T11:11:43.888Z,24.54
2019-02-26T11:14:14.256Z,24.54
2019-02-26T11:16:40.653Z,24.57
2019-02-26T11:19:10.318Z,24.56
2019-02-26T11:21:38.378Z,24.57
2019-02-26T11:24:08.465Z,24.55
2019-02-26T11:26:38.051Z,24.52
2019-02-26T11:29:05.062Z,24.53
2019-02-26T11:31:32.424Z,24.56
2019-02-26T11:34:03.332Z,24.54
2019-02-26T11:36:31.277Z,24.53
2019-02-26T11:39:01.752Z,24.59
2019-02-26T11:41:29.286Z,24.56
2019-02-26T11:43:58.157Z,24.55
2019-02-26T11:46:27.205Z,24.56
2019-02-26T11:48:55.490Z,24.53
2019-02-26T11:51:23.733Z,24.53
2019-02-26T11:53:50.887Z,24.55
2019-02-26T11:56:20.736Z,24.57
2019-02-26T11:58:47.682Z,24.60
2019-02-26T12:01:16.359Z,24.58
2019-02-26T12:03:44.025Z,24.57
2019-02-26T12:08:51.899Z,24.62
2019-02-26T12:11:23.113Z,24.57
2019-02-26T12:13:53.150Z,24.58
2019-02-26T12:16:21.331Z,24.62
2019-02-26T12:18:49.298Z,24.57
2019-02-26T12:21:17.395Z,24.60
2019-02-26T12:23:46.746Z,24.59
2019-02-26T12:26:19.202Z,24.63
2019-02-26T12:28:45.992Z,24.65
2019-02-26T12:31:15.671Z,24.71
2019-02-26T12:33:45.787Z,24.69
2019-02-26T12:36:13.346Z,24.71
2019-02-26T12:38:42.658Z,24.67
2019-02-26T12:41:15.578Z,24.66
2019-02-26T12:43:46.346Z,24.65
2019-02-26T12:46:15.143Z,24.68
2019-02-26T12:48:46.900Z,24.72
2019-02-26T12:51:15.443Z,24.76
2019-02-26T12:53:47.552Z,24.81
2019-02-26T12:56:16.275Z,24.76
2019-02-26T12:58:48.226Z,24.73
2019-02-26T13:01:15.518Z,24.74
2019-02-26T13:03:46.229Z,24.76
2019-02-26T13:06:16.598Z,24.83
2019-02-26T13:08:47.240Z,24.87
2019-02-26T13:11:14.759Z,24.93
2019-02-26T13:13:44.758Z,24.98
2019-02-26T13:16:12.646Z,25.04
2019-02-26T13:18:40.782Z,25.08
2019-02-26T13:21:13.491Z,25.10
2019-02-26T13:23:39.148Z,25.15
2019-02-26T13:26:08.878Z,25.15
2019-02-26T13:28:38.062Z,25.18
2019-02-26T13:31:08.788Z,25.19
2019-02-26T13:33:38.508Z,25.24
2019-02-26T13:36:06.480Z,25.25
2019-02-26T13:38:41.363Z,25.24
2019-02-26T13:41:27.362Z,25.14
2019-02-26T13:43:33.068Z,25.35
2019-02-26T13:46:00.516Z,25.35
2019-02-26T13:48:29.090Z,25.38
2019-02-26T13:50:57.310Z,25.41
2019-02-26T13:53:25.137Z,25.46
2019-02-26T13:55:53.282Z,25.47
2019-02-26T13:58:22.061Z,25.52
2019-02-26T14:00:49.256Z,25.55
2019-02-26T14:03:17.870Z,25.53
2019-02-26T14:05:47.062Z,25.58
2019-02-26T14:08:16.608Z,25.64
2019-02-26T14:10:45.474Z,25.64
2019-02-26T14:13:14.353Z,25.69
2019-02-26T14:15:43.318Z,25.73
2019-02-26T14:18:10.850Z,25.75
2019-02-26T14:20:39.638Z,25.77
2019-02-26T14:23:07.154Z,25.77
2019-02-26T14:25:34.923Z,25.78
2019-02-26T14:28:03.693Z,25.83
2019-02-26T14:30:32.350Z,25.86
2019-02-26T14:33:01.376Z,25.89
2019-02-26T14:35:28.920Z,25.91
2019-02-26T14:37:58.313Z,25.92
2019-02-26T14:40:26.243Z,25.95
2019-02-26T14:42:55.354Z,25.96
2019-02-26T14:45:22.759Z,25.98
2019-02-26T14:47:51.415Z,26.00
2019-02-26T14:50:18.835Z,26.02
2019-02-26T14:52:48.298Z,26.07
2019-02-26T14:55:17.306Z,26.07
2019-02-26T14:57:46.779Z,26.04
2019-02-26T15:00:23.083Z,26.08
2019-02-26T15:02:50.996Z,26.06
2019-02-26T15:05:18.638Z,26.12
2019-02-26T15:07:46.690Z,26.17
2019-02-26T15:10:15.386Z,26.17
2019-02-26T15:12:43.152Z,26.21
2019-02-26T15:15:10.783Z,26.23
2019-02-26T15:17:38.726Z,26.23
2019-02-26T15:20:08.937Z,26.25
2019-02-26T15:22:36.565Z,26.27
2019-02-26T15:25:05.328Z,26.27
2019-02-26T15:27:36.267Z,26.26
2019-02-26T15:30:05.081Z,26.25
2019-02-26T15:32:34.032Z,26.25
2019-02-26T15:35:02.163Z,26.27
2019-02-26T15:37:31.254Z,26.29
2019-02-26T15:39:58.924Z,26.25
2019-02-26T15:42:27.866Z,26.25
2019-02-26T15:44:57.656Z,26.37
2019-02-26T15:47:24.483Z,26.48
2019-02-26T15:49:52.590Z,26.47
2019-02-26T15:52:22.265Z,26.49
2019-02-26T15:54:50.717Z,26.47
2019-02-26T15:57:18.634Z,26.45
2019-02-26T15:59:46.115Z,26.50
2019-02-26T16:02:13.368Z,26.50
2019-02-26T16:04:40.746Z,26.38
2019-02-26T16:07:09.852Z,26.28
2019-02-26T16:09:37.967Z,26.24
2019-02-26T16:12:05.951Z,26.27
2019-02-26T16:14:34.216Z,26.23
2019-02-26T16:17:02.216Z,26.21
2019-02-26T16:19:29.469Z,26.15
2019-02-26T16:21:57.109Z,26.12
2019-02-26T16:24:25.049Z,26.14
2019-02-26T16:26:52.964Z,26.17
2019-02-26T16:29:22.074Z,26.18
2019-02-26T16:31:49.383Z,26.11
2019-02-26T16:34:19.709Z,26.01
2019-02-26T16:36:47.612Z,25.93
2019-02-26T16:39:14.735Z,25.79
2019-02-26T16:41:42.283Z,25.75
2019-02-26T16:44:09.557Z,25.64
2019-02-26T16:46:36.808Z,25.63
2019-02-26T16:49:04.142Z,25.59
2019-02-26T16:51:32.258Z,25.50
2019-02-26T16:53:59.834Z,25.45
2019-02-26T16:56:27.823Z,25.38
2019-02-26T16:58:55.656Z,25.33
2019-02-26T17:01:23.062Z,25.29
2019-02-26T17:03:52.255Z,25.21
2019-02-26T17:06:21.284Z,25.18
2019-02-26T17:08:50.450Z,25.17
2019-02-26T17:11:20.251Z,25.12
2019-02-26T17:13:49.810Z,25.10
2019-02-26T17:16:19.274Z,25.06
2019-02-26T17:18:48.227Z,25.04
2019-02-26T17:21:17.192Z,25.00
2019-02-26T17:23:47.596Z,25.05
2019-02-26T17:26:17.142Z,25.10
2019-02-26T17:28:46.827Z,25.07
2019-02-26T17:31:16.888Z,25.06
2019-02-26T17:33:46.705Z,25.05
2019-02-26T17:36:16.668Z,25.02
2019-02-26T17:38:45.865Z,25.00
2019-02-26T17:41:15.095Z,24.95
2019-02-26T17:43:42.911Z,24.96
2019-02-26T17:46:10.807Z,24.91
2019-02-26T17:48:43.419Z,24.87
2019-02-26T17:51:09.825Z,24.84
2019-02-26T17:53:39.235Z,24.80
2019-02-26T17:56:07.994Z,24.76
2019-02-26T17:58:35.858Z,24.72
2019-02-26T18:01:04.475Z,24.65
2019-02-26T18:03:32.664Z,24.65
2019-02-26T18:06:00.914Z,24.63
2019-02-26T18:08:30.106Z,24.61
2019-02-26T18:10:57.692Z,24.58
2019-02-26T18:13:26.902Z,24.54
2019-02-26T18:15:56.883Z,24.53
2019-02-26T18:18:25.889Z,24.50
2019-02-26T18:20:55.106Z,24.50
2019-02-26T18:23:24.030Z,24.48
2019-02-26T18:25:53.769Z,24.47
2019-02-26T18:28:22.731Z,24.45
2019-02-26T18:30:51.695Z,24.44
2019-02-26T18:33:21.344Z,24.46
2019-02-26T18:35:49.434Z,24.46
2019-02-26T18:38:17.498Z,24.47
2019-02-26T18:40:46.489Z,24.48
2019-02-26T18:43:15.671Z,24.50
2019-02-26T18:45:44.439Z,24.51
2019-02-26T18:48:15.107Z,24.52
2019-02-26T18:50:45.140Z,24.53
2019-02-26T18:53:14.002Z,24.50
2019-02-26T18:55:43.952Z,24.52
2019-02-26T18:58:13.725Z,24.53
2019-02-26T19:00:42.383Z,24.52
2019-02-26T19:03:10.550Z,24.56
2019-02-26T19:05:39.103Z,24.57
2019-02-26T19:08:08.379Z,24.56
2019-02-26T19:10:37.483Z,24.57
2019-02-26T19:13:05.880Z,24.58
2019-02-26T19:15:34.175Z,24.58
2019-02-26T19:18:03.312Z,24.57
2019-02-26T19:20:32.672Z,24.56
2019-02-26T19:23:02.090Z,24.51
2019-02-26T19:25:31.424Z,24.46
2019-02-26T19:28:01.099Z,24.42
2019-02-26T19:30:30.775Z,24.38
2019-02-26T19:33:00.009Z,24.37
2019-02-26T19:35:28.963Z,24.33
2019-02-26T19:37:58.334Z,24.28
2019-02-26T19:40:31.556Z,24.27
2019-02-26T19:43:00.773Z,24.28
2019-02-26T19:45:29.994Z,24.25
2019-02-26T19:47:59.231Z,24.24
2019-02-26T19:50:27.043Z,24.20
2019-02-26T19:52:59.849Z,24.20
2019-02-26T19:55:31.161Z,24.17
2019-02-26T19:58:02.806Z,24.18
2019-02-26T20:00:31.201Z,24.17
2019-02-26T20:02:58.713Z,24.18
2019-02-26T20:05:26.382Z,24.15
2019-02-26T20:07:54.324Z,23.99
2019-02-26T20:10:22.027Z,24.19
2019-02-26T20:12:51.052Z,24.18
2019-02-26T20:15:21.999Z,24.19
2019-02-26T20:17:51.396Z,24.20
2019-02-26T20:20:21.678Z,24.29
2019-02-26T20:22:51.101Z,24.26
2019-02-26T20:25:20.389Z,24.23
2019-02-26T20:27:48.946Z,24.22
2019-02-26T20:30:18.262Z,24.21
2019-02-26T20:32:46.870Z,24.19
2019-02-26T20:35:16.102Z,24.18
2019-02-26T20:37:43.660Z,24.20
2019-02-26T20:40:16.370Z,24.19
2019-02-26T20:42:45.486Z,24.17
2019-02-26T20:45:18.129Z,24.22
2019-02-26T20:47:46.607Z,24.22
2019-02-26T20:50:14.757Z,24.20
2019-02-26T20:52:42.679Z,24.23
2019-02-26T20:55:13.925Z,24.20
2019-02-26T20:57:42.701Z,24.18
2019-02-26T21:00:13.272Z,24.17
2019-02-26T21:02:41.871Z,24.17
2019-02-26T21:05:11.107Z,24.14
2019-02-26T21:07:40.323Z,24.12
2019-02-26T21:10:09.961Z,24.12
2019-02-26T21:12:38.566Z,24.10
2019-02-26T21:15:13.603Z,24.09
2019-02-26T21:17:40.662Z,24.08
2019-02-26T21:20:10.102Z,24.05
2019-02-26T21:22:38.791Z,24.03
2019-02-26T21:25:08.478Z,23.96
2019-02-26T21:27:36.854Z,23.97
2019-02-26T21:30:05.366Z,23.96
2019-02-26T21:32:34.579Z,23.95
2019-02-26T21:35:02.249Z,23.94
2019-02-26T21:37:32.636Z,23.89
2019-02-26T21:40:01.293Z,23.87
2019-02-26T21:42:29.511Z,23.84
2019-02-26T21:44:56.723Z,23.80
2019-02-26T21:47:24.580Z,23.81
2019-02-26T21:49:52.813Z,23.79
2019-02-26T21:52:20.647Z,23.78
2019-02-26T21:54:48.961Z,23.73
2019-02-26T21:57:16.761Z,23.76
2019-02-26T21:59:49.822Z,23.78
2019-02-26T22:02:13.374Z,23.77
2019-02-26T22:07:21.973Z,23.75
2019-02-26T22:09:49.570Z,23.66
2019-02-26T22:12:17.609Z,23.63
2019-02-26T22:14:44.974Z,23.64
2019-02-26T22:17:14.094Z,23.64
2019-02-26T22:19:42.117Z,23.61
2019-02-26T22:22:09.298Z,23.58
2019-02-26T22:24:37.803Z,23.55
2019-02-26T22:27:05.426Z,23.53
2019-02-26T22:29:34.175Z,23.51
2019-02-26T22:32:02.542Z,23.50
2019-02-26T22:34:30.118Z,23.46
2019-02-26T22:36:57.886Z,23.44
2019-02-26T22:39:25.959Z,23.42
2019-02-26T22:41:54.133Z,23.43
2019-02-26T22:44:23.092Z,23.43
2019-02-26T22:46:51.657Z,23.43
2019-02-26T22:49:20.817Z,23.41
2019-02-26T22:51:49.999Z,23.41
2019-02-26T22:54:19.444Z,23.38
2019-02-26T22:56:47.594Z,23.36
2019-02-26T22:59:17.841Z,23.38
2019-02-26T23:01:46.967Z,23.31
2019-02-26T23:04:19.249Z,23.30
2019-02-26T23:06:49.631Z,23.31
2019-02-26T23:09:21.016Z,23.27
2019-02-26T23:11:49.695Z,23.29
2019-02-26T23:14:18.224Z,23.27
2019-02-26T23:16:46.522Z,23.27
2019-02-26T23:19:15.030Z,23.26
2019-02-26T23:21:43.909Z,23.25
2019-02-26T23:24:11.804Z,23.25
2019-02-26T23:26:42.496Z,23.23
2019-02-26T23:29:10.163Z,23.21
2019-02-26T23:31:38.061Z,23.18
2019-02-26T23:34:05.792Z,23.15
2019-02-26T23:36:33.675Z,23.15
2019-02-26T23:39:02.008Z,23.11
2019-02-26T23:41:33.054Z,23.11
2019-02-26T23:44:01.193Z,23.11
2019-02-26T23:46:30.208Z,23.12
2019-02-26T23:48:59.615Z,23.11
2019-02-26T23:51:27.386Z,23.09
2019-02-26T23:53:55.378Z,23.06
2019-02-26T23:56:24.028Z,23.03
2019-02-26T23:58:51.755Z,23.06
